createdAt,value
2018-06-01T00:00:13.073Z,99.99
2018-06-01T00:01:13.108Z,99.99
2018-06-01T00:02:13.146Z,99.99
2018-06-01T00:03:13.183Z,99.99
2018-06-01T00:04:13.214Z,99.99
2018-06-01T00:05:13.248Z,99.99
2018-06-01T00:06:13.286Z,99.99
2018-06-01T00:07:13.320Z,99.99
2018-06-01T00:08:13.356Z,99.99
2018-06-01T00:09:13.390Z,99.99
2018-06-01T00:10:13.425Z,99.99
2018-06-01T00:11:13.461Z,99.99
2018-06-01T00:12:13.497Z,99.99
2018-06-01T00:13:13.531Z,99.99
2018-06-01T00:14:13.568Z,99.99
2018-06-01T00:15:13.604Z,99.99
2018-06-01T00:16:13.639Z,99.99
2018-06-01T00:17:13.674Z,99.99
2018-06-01T00:18:13.709Z,99.99
2018-06-01T00:19:13.743Z,99.99
2018-06-01T00:20:13.784Z,99.99
2018-06-01T00:21:13.814Z,99.99
2018-06-01T00:22:13.852Z,99.99
2018-06-01T00:23:13.883Z,99.99
2018-06-01T00:25:14.004Z,99.99
2018-06-01T00:26:14.318Z,99.99
2018-06-01T00:30:15.546Z,99.99
2018-06-01T00:37:29.885Z,99.99
2018-06-01T00:38:29.918Z,99.99
2018-06-01T00:40:29.990Z,99.99
2018-06-01T00:41:30.027Z,99.99
2018-06-01T00:42:30.061Z,99.99
2018-06-01T00:45:30.165Z,99.99
2018-06-01T00:47:30.236Z,99.99
2018-06-01T00:49:30.306Z,99.99
2018-06-01T00:50:30.363Z,99.99
2018-06-01T00:51:30.800Z,99.99
2018-06-01T00:53:37.421Z,99.99
2018-06-01T00:58:40.987Z,99.99
2018-06-01T00:59:41.017Z,99.99
2018-06-01T01:01:40.888Z,99.99
2018-06-01T01:03:33.700Z,99.99
2018-06-01T01:13:42.263Z,99.99
2018-06-01T01:14:42.296Z,99.99
2018-06-01T01:15:42.657Z,99.99
2018-06-01T01:17:42.423Z,99.99
2018-06-01T01:18:42.660Z,99.99
2018-06-01T01:28:50.494Z,99.99
2018-06-01T01:29:50.330Z,99.99
2018-06-01T01:30:50.378Z,99.99
2018-06-01T01:31:50.830Z,99.99
2018-06-01T01:32:50.448Z,99.99
2018-06-01T01:34:50.520Z,99.99
2018-06-01T01:35:50.555Z,99.99
2018-06-01T01:36:50.593Z,99.99
2018-06-01T01:40:50.935Z,99.99
2018-06-01T01:41:51.575Z,99.99
2018-06-01T01:43:52.961Z,99.99
2018-06-01T01:47:50.956Z,99.99
2018-06-01T01:48:51.009Z,99.99
2018-06-01T01:49:51.046Z,99.99
2018-06-01T01:55:41.933Z,99.99
2018-06-01T01:56:42.553Z,99.99
2018-06-01T01:57:41.578Z,99.99
2018-06-01T01:58:41.614Z,99.99
2018-06-01T01:59:41.650Z,99.99
2018-06-01T02:02:34.293Z,99.99
2018-06-01T02:07:00.247Z,99.99
2018-06-01T02:08:00.300Z,99.99
2018-06-01T02:09:00.318Z,99.99
2018-06-01T02:11:28.014Z,99.99
2018-06-01T02:12:28.048Z,99.99
2018-06-01T02:13:28.083Z,99.99
2018-06-01T02:14:28.118Z,99.99
2018-06-01T02:15:28.153Z,99.99
2018-06-01T02:16:28.189Z,99.99
2018-06-01T02:17:28.222Z,99.99
2018-06-01T02:18:28.256Z,99.99
2018-06-01T02:19:28.294Z,99.99
2018-06-01T02:20:28.327Z,99.99
2018-06-01T02:21:28.361Z,99.99
2018-06-01T02:22:31.430Z,99.99
2018-06-01T02:23:28.449Z,99.99
2018-06-01T02:24:28.466Z,99.99
2018-06-01T02:25:28.522Z,99.99
2018-06-01T02:26:28.555Z,99.99
2018-06-01T02:27:28.877Z,99.99
2018-06-01T02:28:28.828Z,99.99
2018-06-01T02:29:29.469Z,99.99
2018-06-01T02:32:21.286Z,99.99
2018-06-01T02:33:21.320Z,99.99
2018-06-01T02:34:21.354Z,99.99
2018-06-01T02:35:21.390Z,99.99
2018-06-01T02:36:21.443Z,99.99
2018-06-01T02:37:21.480Z,99.99
2018-06-01T02:41:09.125Z,99.99
2018-06-01T02:42:09.160Z,99.99
2018-06-01T02:43:09.215Z,99.99
2018-06-01T02:48:09.370Z,99.99
2018-06-01T02:49:09.729Z,99.99
2018-06-01T02:54:10.515Z,99.99
2018-06-01T02:57:09.684Z,99.99
2018-06-01T02:59:10.360Z,99.99
2018-06-01T03:02:42.497Z,99.99
2018-06-01T03:03:42.836Z,99.99
2018-06-01T03:06:42.962Z,99.99
2018-06-01T03:07:42.893Z,99.99
2018-06-01T03:08:42.722Z,99.99
2018-06-01T03:09:42.759Z,99.99
2018-06-01T03:10:42.997Z,99.99
2018-06-01T03:11:42.829Z,99.99
2018-06-01T03:12:43.755Z,99.99
2018-06-01T03:13:42.897Z,99.99
2018-06-01T03:14:42.932Z,99.99
2018-06-01T03:17:43.219Z,99.99
2018-06-01T03:21:43.175Z,99.99
2018-06-01T03:23:43.246Z,99.99
2018-06-01T03:24:43.277Z,99.99
2018-06-01T03:25:43.312Z,99.99
2018-06-01T03:26:43.551Z,99.99
2018-06-01T03:28:43.399Z,99.99
2018-06-01T03:29:43.757Z,99.99
2018-06-01T03:30:43.689Z,99.99
2018-06-01T03:33:06.332Z,99.99
2018-06-01T03:34:06.365Z,99.99
2018-06-01T03:35:06.399Z,99.99
2018-06-01T03:36:06.433Z,99.99
2018-06-01T03:37:06.468Z,99.99
2018-06-01T03:38:06.501Z,99.99
2018-06-01T03:39:06.536Z,99.99
2018-06-01T03:40:06.571Z,99.99
2018-06-01T03:41:06.606Z,99.99
2018-06-01T03:42:06.639Z,99.99
2018-06-01T03:43:06.674Z,99.99
2018-06-01T03:44:06.709Z,99.99
2018-06-01T03:46:06.793Z,99.99
2018-06-01T03:51:05.008Z,99.99
2018-06-01T03:52:04.715Z,99.99
2018-06-01T03:53:04.748Z,99.99
2018-06-01T03:54:04.806Z,99.99
2018-06-01T03:55:04.837Z,99.99
2018-06-01T03:57:47.434Z,99.99
2018-06-01T03:58:47.476Z,99.99
2018-06-01T03:59:47.502Z,99.99
2018-06-01T04:00:47.556Z,99.99
2018-06-01T04:01:47.570Z,99.99
2018-06-01T04:02:47.620Z,99.99
2018-06-01T04:03:47.639Z,99.99
2018-06-01T04:05:47.708Z,99.99
2018-06-01T04:06:47.770Z,99.99
2018-06-01T04:11:10.861Z,99.99
2018-06-01T04:12:11.310Z,99.99
2018-06-01T04:15:08.717Z,99.99
2018-06-01T04:16:06.349Z,99.99
2018-06-01T04:18:06.197Z,99.99
2018-06-01T04:19:06.230Z,99.99
2018-06-01T04:20:06.268Z,99.99
2018-06-01T04:21:06.299Z,99.99
2018-06-01T04:22:06.336Z,99.99
2018-06-01T04:23:06.367Z,99.99
2018-06-01T04:24:06.400Z,99.99
2018-06-01T04:25:06.439Z,99.99
2018-06-01T04:26:06.470Z,99.99
2018-06-01T04:27:06.502Z,99.99
2018-06-01T04:28:06.538Z,99.99
2018-06-01T04:29:06.572Z,99.99
2018-06-01T04:30:06.608Z,99.99
2018-06-01T04:31:06.644Z,99.99
2018-06-01T04:32:06.675Z,99.99
2018-06-01T04:33:06.709Z,99.99
2018-06-01T04:34:06.743Z,99.99
2018-06-01T04:35:06.777Z,99.99
2018-06-01T04:36:06.813Z,99.99
2018-06-01T04:37:06.846Z,99.99
2018-06-01T04:38:06.880Z,99.99
2018-06-01T04:39:06.917Z,99.99
2018-06-01T04:40:06.949Z,99.99
2018-06-01T04:41:06.983Z,99.99
2018-06-01T04:42:07.025Z,99.99
2018-06-01T04:43:07.051Z,99.99
2018-06-01T04:44:07.086Z,99.99
2018-06-01T04:45:07.120Z,99.99
2018-06-01T04:46:07.153Z,99.99
2018-06-01T04:47:07.188Z,99.99
2018-06-01T04:48:07.224Z,99.99
2018-06-01T04:49:07.257Z,99.99
2018-06-01T04:50:07.293Z,99.99
2018-06-01T04:51:07.327Z,99.99
2018-06-01T04:52:07.360Z,99.99
2018-06-01T04:53:07.394Z,99.99
2018-06-01T04:54:07.428Z,99.99
2018-06-01T04:55:07.461Z,99.99
2018-06-01T04:56:07.508Z,99.99
2018-06-01T04:57:07.532Z,99.99
2018-06-01T04:58:07.566Z,99.99
2018-06-01T04:59:07.599Z,99.99
2018-06-01T05:00:07.635Z,99.99
2018-06-01T05:01:07.668Z,99.99
2018-06-01T05:02:07.709Z,99.99
2018-06-01T05:03:07.738Z,99.99
2018-06-01T05:04:07.775Z,99.99
2018-06-01T05:05:07.806Z,99.99
2018-06-01T05:06:07.842Z,99.99
2018-06-01T05:07:07.877Z,99.99
2018-06-01T05:08:07.911Z,99.99
2018-06-01T05:09:07.945Z,99.99
2018-06-01T05:10:07.981Z,99.99
2018-06-01T05:11:08.014Z,99.99
2018-06-01T05:12:08.048Z,99.99
2018-06-01T05:13:08.083Z,99.99
2018-06-01T05:14:08.443Z,99.99
2018-06-01T05:15:08.152Z,99.99
2018-06-01T05:16:08.388Z,99.99
2018-06-01T05:17:08.221Z,99.99
2018-06-01T05:18:08.256Z,99.99
2018-06-01T05:19:08.291Z,99.99
2018-06-01T05:20:08.327Z,99.99
2018-06-01T05:21:08.361Z,99.99
2018-06-01T05:22:08.397Z,99.99
2018-06-01T05:23:08.429Z,99.99
2018-06-01T05:24:08.465Z,99.99
2018-06-01T05:25:08.500Z,99.99
2018-06-01T05:26:08.535Z,99.99
2018-06-01T05:27:08.568Z,99.99
2018-06-01T05:28:08.625Z,99.99
2018-06-01T05:29:08.658Z,99.99
2018-06-01T05:30:08.690Z,99.99
2018-06-01T05:31:08.708Z,99.99
2018-06-01T05:32:08.964Z,99.99
2018-06-01T05:34:08.836Z,99.99
2018-06-01T05:35:08.846Z,99.99
2018-06-01T05:36:08.903Z,99.99
2018-06-01T05:37:08.918Z,99.99
2018-06-01T05:38:08.955Z,99.99
2018-06-01T05:39:08.987Z,99.99
2018-06-01T05:40:09.022Z,99.99
2018-06-01T05:41:09.058Z,99.99
2018-06-01T05:42:09.093Z,99.99
2018-06-01T05:43:09.130Z,99.99
2018-06-01T05:44:09.162Z,99.99
2018-06-01T05:45:09.202Z,99.99
2018-06-01T05:46:09.233Z,99.99
2018-06-01T05:47:09.268Z,99.99
2018-06-01T05:48:09.303Z,99.99
2018-06-01T05:49:09.339Z,99.99
2018-06-01T05:50:09.374Z,99.99
2018-06-01T05:51:09.409Z,99.99
2018-06-01T05:52:09.442Z,99.99
2018-06-01T05:53:09.479Z,99.99
2018-06-01T05:54:09.515Z,99.99
2018-06-01T05:55:09.550Z,99.99
2018-06-01T05:56:09.585Z,99.99
2018-06-01T05:57:09.619Z,99.99
2018-06-01T05:58:09.655Z,99.99
2018-06-01T05:59:09.690Z,99.99
2018-06-01T06:00:09.728Z,99.99
2018-06-01T06:01:09.761Z,99.99
2018-06-01T06:02:09.797Z,99.99
2018-06-01T06:03:09.831Z,99.99
2018-06-01T06:04:09.867Z,99.99
2018-06-01T06:05:09.903Z,99.99
2018-06-01T06:06:09.939Z,99.99
2018-06-01T06:07:09.973Z,99.99
2018-06-01T06:08:10.009Z,99.99
2018-06-01T06:09:10.045Z,99.99
2018-06-01T06:10:10.081Z,99.99
2018-06-01T06:11:10.116Z,99.99
2018-06-01T06:12:10.152Z,99.99
2018-06-01T06:13:10.192Z,99.99
2018-06-01T06:14:10.224Z,99.99
2018-06-01T06:15:10.261Z,99.99
2018-06-01T06:16:10.295Z,99.99
2018-06-01T06:17:10.331Z,99.99
2018-06-01T06:18:10.369Z,99.99
2018-06-01T06:19:10.402Z,99.99
2018-06-01T06:20:10.438Z,99.99
2018-06-01T06:21:10.475Z,99.99
2018-06-01T06:22:10.529Z,99.99
2018-06-01T06:23:10.546Z,99.99
2018-06-01T06:24:10.582Z,99.99
2018-06-01T06:25:10.619Z,99.99
2018-06-01T06:26:10.654Z,99.99
2018-06-01T06:27:10.690Z,99.99
2018-06-01T06:28:11.150Z,99.99
2018-06-01T06:29:10.782Z,99.99
2018-06-01T06:30:10.818Z,99.99
2018-06-01T06:31:11.159Z,99.99
2018-06-01T06:32:10.893Z,99.99
2018-06-01T06:33:10.924Z,99.99
2018-06-01T06:35:10.977Z,99.99
2018-06-01T06:36:11.033Z,99.99
2018-06-01T06:37:11.072Z,99.99
2018-06-01T06:38:11.108Z,99.99
2018-06-01T06:39:11.130Z,99.99
2018-06-01T06:40:11.179Z,99.99
2018-06-01T06:41:11.214Z,99.99
2018-06-01T06:42:11.251Z,99.99
2018-06-01T06:43:12.007Z,99.99
2018-06-01T06:44:11.525Z,99.99
2018-06-01T06:45:11.364Z,99.99
2018-06-01T06:46:11.401Z,99.99
2018-06-01T06:48:11.678Z,99.99
2018-06-01T06:50:11.850Z,99.99
2018-06-01T06:51:11.581Z,99.99
2018-06-01T06:53:12.055Z,99.99
2018-06-01T06:54:12.196Z,99.99
2018-06-01T06:56:11.966Z,99.99
2018-06-01T06:57:11.797Z,99.99
2018-06-01T06:59:11.870Z,99.99
2018-06-01T07:00:12.192Z,99.99
2018-06-01T07:01:11.945Z,99.99
2018-06-01T07:02:11.984Z,99.99
2018-06-01T07:04:12.260Z,99.99
2018-06-01T07:05:12.069Z,99.99
2018-06-01T07:06:12.324Z,99.99
2018-06-01T07:07:12.161Z,99.99
2018-06-01T07:08:12.198Z,99.99
2018-06-01T07:09:12.923Z,99.99
2018-06-01T07:10:12.253Z,99.99
2018-06-01T07:11:12.289Z,99.99
2018-06-01T07:12:12.343Z,99.99
2018-06-01T07:14:12.726Z,99.99
2018-06-01T07:15:12.437Z,99.99
2018-06-01T07:16:12.496Z,99.99
2018-06-01T07:17:12.531Z,99.99
2018-06-01T07:18:12.573Z,99.99
2018-06-01T07:19:12.607Z,99.99
2018-06-01T07:20:13.046Z,99.99
2018-06-01T07:21:12.881Z,99.99
2018-06-01T07:22:12.919Z,99.99
2018-06-01T07:23:12.732Z,99.99
2018-06-01T07:24:12.789Z,99.99
2018-06-01T07:25:12.807Z,99.99
2018-06-01T07:26:13.046Z,99.99
2018-06-01T07:27:13.100Z,99.99
2018-06-01T07:28:12.949Z,99.99
2018-06-01T07:29:12.955Z,99.99
2018-06-01T07:30:13.214Z,99.99
2018-06-01T07:31:13.051Z,99.99
2018-06-01T07:32:13.068Z,98.97
2018-06-01T07:33:13.158Z,97.91
2018-06-01T07:34:13.146Z,97.91
2018-06-01T07:35:13.180Z,97.91
2018-06-01T07:36:13.218Z,97.33
2018-06-01T07:37:13.257Z,97.62
2018-06-01T07:38:13.293Z,97.42
2018-06-01T07:39:13.329Z,98.63
2018-06-01T07:40:13.368Z,98.34
2018-06-01T07:41:13.425Z,96.32
2018-06-01T07:42:13.443Z,96.56
2018-06-01T07:43:13.480Z,95.84
2018-06-01T07:44:13.519Z,94.43
2018-06-01T07:45:13.556Z,93.76
2018-06-01T07:46:13.599Z,94.53
2018-06-01T07:47:13.632Z,93.66
2018-06-01T07:48:13.670Z,91.35
2018-06-01T07:49:13.709Z,91.64
2018-06-01T07:50:13.763Z,91.93
2018-06-01T07:51:13.783Z,91.35
2018-06-01T07:52:13.823Z,92.60
2018-06-01T07:53:13.860Z,94.15
2018-06-01T07:54:13.899Z,90.87
2018-06-01T07:55:13.937Z,91.11
2018-06-01T07:56:13.974Z,91.20
2018-06-01T07:57:14.013Z,92.55
2018-06-01T07:58:14.052Z,93.47
2018-06-01T07:59:14.089Z,92.89
2018-06-01T08:00:14.128Z,91.83
2018-06-01T08:01:14.166Z,91.63
2018-06-01T08:02:14.206Z,92.02
2018-06-01T08:03:14.243Z,91.83
2018-06-01T08:04:14.280Z,91.67
2018-06-01T08:05:14.324Z,91.83
2018-06-01T08:06:14.359Z,92.07
2018-06-01T08:07:14.399Z,88.10
2018-06-01T08:08:14.457Z,86.75
2018-06-01T08:09:14.523Z,86.75
2018-06-01T08:10:14.835Z,87.04
2018-06-01T08:11:14.570Z,87.91
2018-06-01T08:12:14.589Z,86.46
2018-06-01T08:13:14.628Z,87.37
2018-06-01T08:14:14.666Z,85.40
2018-06-01T08:15:14.704Z,84.72
2018-06-01T08:16:14.744Z,85.30
2018-06-01T08:17:14.782Z,82.98
2018-06-01T08:18:14.842Z,82.25
2018-06-01T08:19:14.879Z,85.15
2018-06-01T08:20:15.264Z,85.73
2018-06-01T08:21:14.938Z,84.38
2018-06-01T08:22:14.976Z,84.19
2018-06-01T08:23:15.014Z,83.31
2018-06-01T08:24:15.054Z,82.45
2018-06-01T08:25:15.094Z,83.22
2018-06-01T08:26:15.134Z,83.06
2018-06-01T08:27:15.170Z,82.83
2018-06-01T08:28:15.213Z,83.31
2018-06-01T08:29:15.250Z,84.57
2018-06-01T08:30:15.288Z,85.63
2018-06-01T08:31:15.326Z,83.18
2018-06-01T08:32:15.388Z,83.31
2018-06-01T08:33:15.405Z,82.83
2018-06-01T08:34:15.445Z,82.78
2018-06-01T08:35:15.483Z,82.78
2018-06-01T08:36:15.523Z,82.39
2018-06-01T08:37:15.563Z,83.80
2018-06-01T08:38:15.601Z,82.58
2018-06-01T08:39:15.642Z,80.94
2018-06-01T08:40:15.680Z,79.39
2018-06-01T08:41:15.719Z,80.30
2018-06-01T08:42:15.760Z,81.37
2018-06-01T08:43:15.797Z,82.43
2018-06-01T08:44:15.842Z,80.69
2018-06-01T08:45:15.877Z,80.98
2018-06-01T08:46:15.918Z,82.47
2018-06-01T08:47:15.957Z,82.47
2018-06-01T08:48:15.994Z,82.95
2018-06-01T08:49:16.036Z,82.28
2018-06-01T08:50:16.074Z,80.54
2018-06-01T08:51:16.119Z,80.96
2018-06-01T08:52:16.154Z,79.50
2018-06-01T08:53:16.195Z,78.92
2018-06-01T08:54:16.241Z,79.37
2018-06-01T08:55:16.274Z,77.11
2018-06-01T08:56:16.318Z,76.46
2018-06-01T08:57:16.356Z,77.53
2018-06-01T08:58:16.394Z,78.31
2018-06-01T08:59:16.448Z,77.37
2018-06-01T09:00:16.475Z,77.47
2018-06-01T09:01:16.514Z,76.79
2018-06-01T09:02:16.555Z,78.41
2018-06-01T09:03:16.594Z,78.54
2018-06-01T09:04:16.637Z,78.64
2018-06-01T09:05:16.676Z,76.93
2018-06-01T09:06:16.716Z,77.12
2018-06-01T09:07:16.759Z,78.29
2018-06-01T09:08:16.796Z,77.61
2018-06-01T09:09:16.834Z,76.29
2018-06-01T09:10:16.895Z,75.32
2018-06-01T09:11:16.971Z,73.96
2018-06-01T09:12:16.957Z,75.51
2018-06-01T09:13:16.998Z,75.57
2018-06-01T09:14:17.039Z,76.60
2018-06-01T09:15:17.077Z,76.93
2018-06-01T09:16:17.119Z,77.90
2018-06-01T09:17:17.161Z,78.19
2018-06-01T09:18:17.201Z,76.83
2018-06-01T09:19:17.240Z,76.39
2018-06-01T09:20:17.280Z,75.03
2018-06-01T09:21:17.327Z,73.96
2018-06-01T09:22:17.400Z,73.58
2018-06-01T09:23:17.402Z,73.96
2018-06-01T09:24:17.445Z,73.67
2018-06-01T09:25:17.706Z,74.80
2018-06-01T09:26:17.931Z,75.83
2018-06-01T09:27:17.566Z,74.02
2018-06-01T09:28:17.634Z,72.61
2018-06-01T09:30:17.711Z,74.19
2018-06-01T09:31:17.746Z,71.19
2018-06-01T09:33:17.813Z,70.61
2018-06-01T09:34:17.906Z,70.57
2018-06-01T09:35:17.895Z,72.25
2018-06-01T09:36:17.936Z,71.70
2018-06-01T09:37:17.978Z,70.03
2018-06-01T09:38:18.019Z,70.76
2018-06-01T09:39:18.062Z,72.51
2018-06-01T09:40:18.100Z,72.89
2018-06-01T09:41:18.143Z,72.83
2018-06-01T09:42:18.185Z,71.51
2018-06-01T09:43:18.224Z,70.35
2018-06-01T09:44:18.267Z,70.41
2018-06-01T09:45:18.329Z,71.80
2018-06-01T09:46:18.351Z,70.35
2018-06-01T09:47:18.393Z,69.22
2018-06-01T09:48:18.432Z,67.76
2018-06-01T09:49:18.477Z,66.82
2018-06-01T09:50:18.719Z,66.08
2018-06-01T09:51:18.557Z,66.11
2018-06-01T09:52:18.599Z,65.14
2018-06-01T09:53:18.643Z,63.91
2018-06-01T09:54:18.684Z,65.50
2018-06-01T09:55:18.725Z,66.14
2018-06-01T09:56:18.767Z,66.37
2018-06-01T09:57:18.810Z,66.79
2018-06-01T09:58:18.858Z,66.47
2018-06-01T09:59:18.893Z,66.27
2018-06-01T10:00:18.935Z,65.11
2018-06-01T10:01:18.978Z,63.94
2018-06-01T10:02:19.021Z,63.36
2018-06-01T10:03:19.062Z,65.98
2018-06-01T10:04:19.103Z,64.46
2018-06-01T10:05:19.146Z,64.78
2018-06-01T10:06:19.191Z,65.11
2018-06-01T10:07:19.235Z,66.11
2018-06-01T10:08:19.275Z,65.50
2018-06-01T10:09:19.324Z,67.92
2018-06-01T10:10:19.361Z,67.37
2018-06-01T10:11:19.406Z,70.00
2018-06-01T10:12:19.445Z,68.15
2018-06-01T10:13:19.488Z,67.80
2018-06-01T10:14:19.531Z,68.02
2018-06-01T10:15:19.576Z,66.60
2018-06-01T10:16:19.616Z,66.40
2018-06-01T10:17:19.658Z,64.95
2018-06-01T10:18:19.702Z,66.34
2018-06-01T10:19:19.745Z,63.32
2018-06-01T10:20:19.787Z,63.42
2018-06-01T10:21:19.829Z,63.13
2018-06-01T10:22:19.874Z,62.77
2018-06-01T10:23:19.915Z,62.38
2018-06-01T10:24:19.956Z,60.14
2018-06-01T10:25:20.004Z,61.28
2018-06-01T10:26:20.044Z,62.26
2018-06-01T10:27:20.086Z,62.35
2018-06-01T10:28:20.129Z,62.77
2018-06-01T10:29:20.173Z,62.80
2018-06-01T10:30:20.216Z,63.16
2018-06-01T10:31:20.259Z,63.09
2018-06-01T10:32:20.305Z,62.38
2018-06-01T10:33:20.397Z,63.35
2018-06-01T10:34:20.389Z,63.52
2018-06-01T10:35:20.432Z,62.57
2018-06-01T10:36:20.474Z,61.70
2018-06-01T10:37:20.519Z,63.00
2018-06-01T10:38:20.563Z,62.77
2018-06-01T10:39:23.228Z,61.31
2018-06-01T10:40:20.648Z,59.36
2018-06-01T10:41:20.694Z,60.70
2018-06-01T10:42:20.742Z,59.23
2018-06-01T10:43:20.782Z,56.05
2018-06-01T10:44:20.826Z,53.03
2018-06-01T10:45:20.893Z,51.07
2018-06-01T10:46:20.916Z,52.51
2018-06-01T10:47:20.967Z,53.00
2018-06-01T10:49:03.566Z,49.36
2018-06-01T10:50:03.614Z,47.27
2018-06-01T10:51:03.659Z,43.51
2018-06-01T10:52:03.707Z,43.00
2018-06-01T10:53:03.756Z,42.10
2018-06-01T10:54:03.823Z,41.56
2018-06-01T10:55:03.856Z,41.86
2018-06-01T10:56:03.900Z,43.76
2018-06-01T10:57:03.950Z,46.69
2018-06-01T10:58:03.999Z,49.85
2018-06-01T10:59:04.049Z,51.76
2018-06-01T11:00:04.101Z,50.73
2018-06-01T11:01:04.146Z,49.48
2018-06-01T11:02:04.201Z,47.64
2018-06-01T11:03:04.243Z,48.72
2018-06-01T11:04:04.292Z,50.88
2018-06-01T11:05:04.344Z,54.63
2018-06-01T11:06:04.392Z,55.15
2018-06-01T11:07:04.442Z,53.25
2018-06-01T11:08:04.491Z,53.52
2018-06-01T11:09:04.539Z,54.24
2018-06-01T11:10:04.589Z,54.52
2018-06-01T11:11:04.639Z,51.98
2018-06-01T11:12:04.687Z,54.30
2018-06-01T11:13:04.734Z,51.49
2018-06-01T11:14:04.785Z,48.77
2018-06-01T11:15:04.833Z,47.56
2018-06-01T11:17:04.930Z,49.75
2018-06-01T11:18:04.978Z,52.68
2018-06-01T11:19:05.045Z,54.50
2018-06-01T11:20:05.077Z,54.97
2018-06-01T11:21:05.128Z,57.47
2018-06-01T11:22:05.180Z,54.69
2018-06-01T11:23:05.223Z,50.81
2018-06-01T11:24:05.273Z,50.83
2018-06-01T11:25:05.324Z,49.85
2018-06-01T11:26:05.370Z,47.57
2018-06-01T11:27:05.535Z,43.65
2018-06-01T11:28:05.468Z,41.57
2018-06-01T11:29:05.522Z,40.86
2018-06-01T11:30:05.568Z,42.43
2018-06-01T11:31:05.618Z,42.57
2018-06-01T11:32:05.669Z,42.35
2018-06-01T11:33:05.720Z,44.92
2018-06-01T11:34:05.770Z,43.86
2018-06-01T11:35:05.822Z,42.53
2018-06-01T11:36:06.094Z,42.25
2018-06-01T11:37:05.922Z,40.69
2018-06-01T11:38:05.975Z,40.00
2018-06-01T11:39:06.025Z,40.45
2018-06-01T11:40:06.076Z,40.31
2018-06-01T11:41:06.130Z,38.08
2018-06-01T11:42:06.181Z,37.41
2018-06-01T11:43:06.234Z,36.01
2018-06-01T11:44:06.286Z,36.30
2018-06-01T11:45:06.339Z,38.24
2018-06-01T11:46:06.397Z,36.34
2018-06-01T11:47:06.447Z,35.09
2018-06-01T11:48:06.505Z,36.73
2018-06-01T11:49:06.552Z,36.88
2018-06-01T11:50:06.607Z,35.00
2018-06-01T11:51:06.664Z,34.18
2018-06-01T11:52:06.715Z,32.89
2018-06-01T11:53:06.771Z,32.73
2018-06-01T11:54:06.826Z,31.95
2018-06-01T11:55:06.880Z,31.38
2018-06-01T11:56:06.934Z,33.07
2018-06-01T11:57:06.996Z,34.88
2018-06-01T11:58:07.044Z,37.91
2018-06-01T11:59:07.101Z,37.91
2018-06-01T12:00:07.154Z,39.18
2018-06-01T12:01:07.210Z,41.43
2018-06-01T12:02:07.264Z,45.05
2018-06-01T12:03:07.332Z,45.59
2018-06-01T12:04:07.372Z,44.77
2018-06-01T12:05:07.427Z,41.96
2018-06-01T12:06:07.481Z,42.72
2018-06-01T12:07:07.536Z,41.59
2018-06-01T12:08:07.588Z,38.70
2018-06-01T12:09:07.645Z,37.57
2018-06-01T12:10:07.694Z,37.01
2018-06-01T12:11:07.773Z,35.17
2018-06-01T12:12:07.803Z,34.99
2018-06-01T12:13:07.858Z,34.22
2018-06-01T12:14:07.918Z,34.66
2018-06-01T12:15:07.967Z,33.84
2018-06-01T12:16:08.021Z,35.41
2018-06-01T12:17:08.090Z,36.40
2018-06-01T12:18:08.133Z,38.89
2018-06-01T12:19:08.187Z,42.14
2018-06-01T12:20:08.270Z,39.94
2018-06-01T12:21:08.296Z,39.07
2018-06-01T12:22:08.350Z,41.53
2018-06-01T12:23:08.439Z,43.70
2018-06-01T12:24:08.459Z,42.51
2018-06-01T12:25:08.514Z,40.33
2018-06-01T12:26:08.568Z,41.88
2018-06-01T12:27:08.626Z,44.73
2018-06-01T12:28:08.702Z,46.72
2018-06-01T12:29:08.764Z,49.68
2018-06-01T12:30:08.781Z,53.36
2018-06-01T12:31:08.835Z,53.14
2018-06-01T12:32:09.111Z,53.60
2018-06-01T12:33:08.941Z,54.65
2018-06-01T12:34:08.990Z,55.99
2018-06-01T12:35:09.042Z,57.61
2018-06-01T12:36:09.091Z,57.49
2018-06-01T12:37:09.148Z,60.21
2018-06-01T12:38:09.192Z,60.77
2018-06-01T12:39:09.243Z,62.00
2018-06-01T12:40:09.289Z,61.32
2018-06-01T12:41:09.343Z,62.45
2018-06-01T12:42:09.388Z,62.78
2018-06-01T12:43:09.436Z,65.37
2018-06-01T12:44:09.483Z,66.40
2018-06-01T12:45:09.535Z,66.69
2018-06-01T12:46:09.579Z,66.95
2018-06-01T12:47:09.626Z,67.63
2018-06-01T12:48:09.672Z,69.63
2018-06-01T12:49:09.718Z,70.89
2018-06-01T12:50:09.763Z,70.21
2018-06-01T12:51:09.809Z,70.79
2018-06-01T12:52:09.853Z,71.47
2018-06-01T12:53:09.899Z,71.18
2018-06-01T12:54:10.024Z,70.89
2018-06-01T12:55:09.989Z,71.37
2018-06-01T12:56:10.052Z,72.79
2018-06-01T12:57:10.078Z,73.89
2018-06-01T12:58:10.126Z,73.79
2018-06-01T12:59:10.166Z,73.25
2018-06-01T13:00:10.210Z,73.67
2018-06-01T13:01:10.253Z,73.19
2018-06-01T13:02:10.298Z,67.96
2018-06-01T13:03:10.342Z,62.31
2018-06-01T13:04:10.387Z,56.79
2018-06-01T13:05:10.428Z,52.59
2018-06-01T13:06:10.484Z,52.30
2018-06-01T13:07:10.520Z,50.51
2018-06-01T13:08:10.564Z,46.78
2018-06-01T13:09:10.611Z,44.88
2018-06-01T13:10:10.659Z,43.52
2018-06-01T13:11:10.706Z,42.00
2018-06-01T13:12:10.753Z,41.24
2018-06-01T13:13:10.852Z,41.43
2018-06-01T13:14:10.851Z,39.65
2018-06-01T13:15:10.947Z,40.72
2018-06-01T13:16:10.949Z,40.53
2018-06-01T13:17:10.997Z,39.18
2018-06-01T13:18:11.083Z,39.20
2018-06-01T13:19:11.100Z,38.04
2018-06-01T13:20:11.149Z,38.41
2018-06-01T13:21:11.201Z,37.46
2018-06-01T13:22:11.256Z,36.47
2018-06-01T13:23:11.353Z,35.32
2018-06-01T13:24:11.355Z,36.93
2018-06-01T13:25:11.408Z,35.49
2018-06-01T13:26:11.460Z,35.27
2018-06-01T13:27:11.511Z,36.34
2018-06-01T13:28:11.564Z,34.99
2018-06-01T13:29:11.617Z,36.12
2018-06-01T13:30:11.670Z,37.87
2018-06-01T13:31:11.723Z,37.59
2018-06-01T13:32:11.776Z,37.85
2018-06-01T13:33:11.828Z,37.88
2018-06-01T13:34:11.884Z,36.83
2018-06-01T13:35:11.936Z,37.51
2018-06-01T13:36:11.989Z,34.99
2018-06-01T13:37:12.043Z,34.99
2018-06-01T13:38:12.098Z,36.47
2018-06-01T13:39:12.151Z,35.88
2018-06-01T13:40:12.207Z,35.98
2018-06-01T13:41:12.259Z,35.28
2018-06-01T13:42:12.314Z,36.87
2018-06-01T13:43:12.368Z,36.67
2018-06-01T13:44:12.422Z,36.95
2018-06-01T13:45:12.477Z,35.86
2018-06-01T13:46:12.530Z,38.83
2018-06-01T13:47:12.589Z,39.58
2018-06-01T13:48:12.638Z,38.71
2018-06-01T13:49:12.694Z,40.09
2018-06-01T13:50:12.747Z,39.34
2018-06-01T13:51:12.804Z,38.35
2018-06-01T13:52:12.858Z,37.51
2018-06-01T13:53:12.915Z,36.47
2018-06-01T13:54:12.966Z,35.99
2018-06-01T13:55:13.022Z,35.78
2018-06-01T13:56:13.076Z,34.81
2018-06-01T13:57:13.130Z,35.38
2018-06-01T13:58:13.186Z,37.26
2018-06-01T13:59:13.241Z,38.22
2018-06-01T14:00:13.294Z,38.56
2018-06-01T14:01:13.349Z,38.22
2018-06-01T14:02:13.404Z,38.64
2018-06-01T14:03:13.460Z,35.88
2018-06-01T14:04:13.513Z,34.01
2018-06-01T14:05:13.568Z,34.12
2018-06-01T14:06:13.623Z,32.50
2018-06-01T14:07:13.679Z,32.48
2018-06-01T14:08:13.732Z,32.18
2018-06-01T14:09:13.787Z,32.00
2018-06-01T14:10:13.842Z,31.72
2018-06-01T14:11:13.896Z,32.93
2018-06-01T14:12:13.951Z,32.81
2018-06-01T14:13:14.005Z,34.92
2018-06-01T14:14:14.062Z,33.16
2018-06-01T14:15:14.119Z,34.59
2018-06-01T14:16:14.170Z,34.30
2018-06-01T14:17:14.225Z,33.84
2018-06-01T14:18:14.281Z,35.17
2018-06-01T14:21:40.276Z,35.05
2018-06-01T14:22:40.331Z,33.22
2018-06-01T14:23:40.385Z,33.20
2018-06-01T14:24:40.440Z,34.80
2018-06-01T14:25:40.495Z,38.19
2018-06-01T14:26:40.612Z,40.55
2018-06-01T14:27:40.604Z,42.93
2018-06-01T14:28:40.659Z,43.89
2018-06-01T14:29:40.712Z,45.12
2018-06-01T14:30:40.764Z,44.06
2018-06-01T14:31:40.819Z,46.56
2018-06-01T14:32:40.871Z,45.06
2018-06-01T14:33:40.923Z,41.80
2018-06-01T14:34:40.975Z,39.95
2018-06-01T14:35:41.028Z,37.34
2018-06-01T14:36:41.079Z,35.80
2018-06-01T14:37:41.148Z,35.35
2018-06-01T14:38:41.184Z,36.99
2018-06-01T14:39:41.241Z,36.72
2018-06-01T14:40:41.341Z,33.74
2018-06-01T14:41:41.342Z,32.88
2018-06-01T14:42:41.395Z,32.39
2018-06-01T14:43:41.449Z,31.54
2018-06-01T14:44:41.500Z,31.57
2018-06-01T14:45:41.553Z,32.01
2018-06-01T14:46:41.607Z,33.01
2018-06-01T14:47:41.661Z,33.92
2018-06-01T14:48:41.714Z,35.10
2018-06-01T14:49:41.768Z,35.88
2018-06-01T14:50:41.823Z,35.00
2018-06-01T14:51:41.875Z,34.43